sensor_id;sensor_type;location;lat;lon;timestamp;pressure;altitude;pressure_sealevel;temperature;humidity
74346;BME280;62776;50.518;6.732;2022-09-01T00:00:20;96974.38;;;15.61;79.86
74346;BME280;62776;50.518;6.732;2022-09-01T00:03:08;96971.91;;;15.55;80.20
74346;BME280;62776;50.518;6.732;2022-09-01T00:05:57;96971.97;;;15.52;80.38
74346;BME280;62776;50.518;6.732;2022-09-01T00:08:43;96974.69;;;15.49;80.48
74346;BME280;62776;50.518;6.732;2022-09-01T00:11:29;96973.84;;;15.47;80.36
74346;BME280;62776;50.518;6.732;2022-09-01T00:14:17;96978.22;;;15.45;80.55
74346;BME280;62776;50.518;6.732;2022-09-01T00:17:04;96973.84;;;15.46;80.26
74346;BME280;62776;50.518;6.732;2022-09-01T00:19:51;96966.88;;;15.46;80.01
74346;BME280;62776;50.518;6.732;2022-09-01T00:22:37;96968.63;;;15.44;80.14
74346;BME280;62776;50.518;6.732;2022-09-01T00:25:23;96963.50;;;15.40;81.29
74346;BME280;62776;50.518;6.732;2022-09-01T00:28:09;96959.25;;;15.34;81.23
74346;BME280;62776;50.518;6.732;2022-09-01T00:30:55;96968.06;;;15.30;81.49
74346;BME280;62776;50.518;6.732;2022-09-01T00:33:41;96963.88;;;15.23;81.69
74346;BME280;62776;50.518;6.732;2022-09-01T00:36:27;96959.69;;;15.16;82.04
74346;BME280;62776;50.518;6.732;2022-09-01T00:39:13;96962.38;;;15.13;82.40
74346;BME280;62776;50.518;6.732;2022-09-01T00:42:00;96957.19;;;15.10;82.83
74346;BME280;62776;50.518;6.732;2022-09-01T00:44:46;96957.19;;;15.10;82.42
74346;BME280;62776;50.518;6.732;2022-09-01T00:47:33;96954.59;;;15.08;82.42
74346;BME280;62776;50.518;6.732;2022-09-01T00:50:20;96959.81;;;15.08;82.75
74346;BME280;62776;50.518;6.732;2022-09-01T00:53:06;96958.19;;;15.04;82.80
74346;BME280;62776;50.518;6.732;2022-09-01T00:55:53;96961.78;;;14.99;83.16
74346;BME280;62776;50.518;6.732;2022-09-01T00:58:39;96964.41;;;14.99;83.19
74346;BME280;62776;50.518;6.732;2022-09-01T01:01:26;96961.97;;;14.90;83.87
74346;BME280;62776;50.518;6.732;2022-09-01T01:04:12;96961.97;;;14.91;83.97
74346;BME280;62776;50.518;6.732;2022-09-01T01:07:01;96960.28;;;14.87;83.96
74346;BME280;62776;50.518;6.732;2022-09-01T01:09:47;96955.13;;;14.84;83.82
74346;BME280;62776;50.518;6.732;2022-09-01T01:12:35;96956.03;;;14.82;83.77
74346;BME280;62776;50.518;6.732;2022-09-01T01:15:22;96949.06;;;14.81;83.73
74346;BME280;62776;50.518;6.732;2022-09-01T01:18:15;96947.38;;;14.78;83.99
74346;BME280;62776;50.518;6.732;2022-09-01T01:21:05;96953.47;;;14.78;83.93
74346;BME280;62776;50.518;6.732;2022-09-01T01:24:26;96948.25;;;14.78;84.11
74346;BME280;62776;50.518;6.732;2022-09-01T01:27:12;96954.44;;;14.74;84.54
74346;BME280;62776;50.518;6.732;2022-09-01T01:30:04;96950.09;;;14.73;84.78
74346;BME280;62776;50.518;6.732;2022-09-01T01:32:52;96945.03;;;14.64;85.35
74346;BME280;62776;50.518;6.732;2022-09-01T01:35:43;96942.59;;;14.57;85.46
74346;BME280;62776;50.518;6.732;2022-09-01T01:38:29;96946.19;;;14.51;85.89
74346;BME280;62776;50.518;6.732;2022-09-01T01:41:16;96941.00;;;14.48;85.93
74346;BME280;62776;50.518;6.732;2022-09-01T01:44:04;96952.34;;;14.49;85.82
74346;BME280;62776;50.518;6.732;2022-09-01T01:46:51;96948.78;;;14.51;85.24
74346;BME280;62776;50.518;6.732;2022-09-01T01:49:39;96956.59;;;14.54;84.86
74346;BME280;62776;50.518;6.732;2022-09-01T01:52:28;96960.94;;;14.54;84.83
74346;BME280;62776;50.518;6.732;2022-09-01T01:55:14;96961.81;;;14.54;84.83
74346;BME280;62776;50.518;6.732;2022-09-01T01:58:04;96953.09;;;14.55;84.50
74346;BME280;62776;50.518;6.732;2022-09-01T02:00:50;96962.69;;;14.55;84.56
74346;BME280;62776;50.518;6.732;2022-09-01T02:03:37;96962.75;;;14.52;84.56
74346;BME280;62776;50.518;6.732;2022-09-01T02:06:23;96961.91;;;14.50;84.36
74346;BME280;62776;50.518;6.732;2022-09-01T02:09:11;96961.94;;;14.48;84.55
74346;BME280;62776;50.518;6.732;2022-09-01T02:11:57;96955.06;;;14.43;84.83
74346;BME280;62776;50.518;6.732;2022-09-01T02:14:43;96956.91;;;14.39;84.69
74346;BME280;62776;50.518;6.732;2022-09-01T02:17:30;96962.25;;;14.33;84.98
74346;BME280;62776;50.518;6.732;2022-09-01T02:20:16;96958.72;;;14.31;85.13
74346;BME280;62776;50.518;6.732;2022-09-01T02:23:02;96958.81;;;14.27;85.50
74346;BME280;62776;50.518;6.732;2022-09-01T02:25:55;96955.41;;;14.23;85.96
74346;BME280;62776;50.518;6.732;2022-09-01T02:28:42;96958.09;;;14.20;85.92
74346;BME280;62776;50.518;6.732;2022-09-01T02:31:31;96958.94;;;14.20;86.02
74346;BME280;62776;50.518;6.732;2022-09-01T02:34:21;96955.47;;;14.20;85.56
74346;BME280;62776;50.518;6.732;2022-09-01T02:37:08;96958.97;;;14.19;85.69
74346;BME280;62776;50.518;6.732;2022-09-01T02:39:54;96951.22;;;14.14;86.02
74346;BME280;62776;50.518;6.732;2022-09-01T02:42:44;96954.78;;;14.10;86.06
74346;BME280;62776;50.518;6.732;2022-09-01T02:45:32;96952.19;;;14.09;86.02
74346;BME280;62776;50.518;6.732;2022-09-01T02:48:19;96936.56;;;14.06;86.39
74346;BME280;62776;50.518;6.732;2022-09-01T02:51:10;96939.22;;;14.01;86.55
74346;BME280;62776;50.518;6.732;2022-09-01T02:53:56;96948.81;;;14.01;86.47
74346;BME280;62776;50.518;6.732;2022-09-01T02:56:46;96942.00;;;13.94;86.96
74346;BME280;62776;50.518;6.732;2022-09-01T02:59:32;96944.66;;;13.91;87.01
74346;BME280;62776;50.518;6.732;2022-09-01T03:02:19;96949.09;;;13.86;87.20
74346;BME280;62776;50.518;6.732;2022-09-01T03:05:07;96940.47;;;13.81;87.32
74346;BME280;62776;50.518;6.732;2022-09-01T03:07:54;96936.22;;;13.75;87.71
74346;BME280;62776;50.518;6.732;2022-09-01T03:10:43;96938.00;;;13.73;87.71
74346;BME280;62776;50.518;6.732;2022-09-01T03:13:29;96936.28;;;13.72;87.79
74346;BME280;62776;50.518;6.732;2022-09-01T03:16:16;96932.06;;;13.64;88.71
74346;BME280;62776;50.518;6.732;2022-09-01T03:19:02;96933.88;;;13.58;89.36
74346;BME280;62776;50.518;6.732;2022-09-01T03:21:48;96933.88;;;13.58;89.03
74346;BME280;62776;50.518;6.732;2022-09-01T03:24:34;96938.22;;;13.59;88.71
74346;BME280;62776;50.518;6.732;2022-09-01T03:27:21;96935.72;;;13.53;89.51
74346;BME280;62776;50.518;6.732;2022-09-01T03:30:07;96929.63;;;13.53;89.37
74346;BME280;62776;50.518;6.732;2022-09-01T03:32:53;96932.19;;;13.54;88.85
74346;BME280;62776;50.518;6.732;2022-09-01T03:35:39;96933.97;;;13.52;88.26
74346;BME280;62776;50.518;6.732;2022-09-01T03:38:25;96933.16;;;13.49;88.07
74346;BME280;62776;50.518;6.732;2022-09-01T03:41:11;96937.59;;;13.44;88.08
74346;BME280;62776;50.518;6.732;2022-09-01T03:43:58;96937.66;;;13.39;88.08
74346;BME280;62776;50.518;6.732;2022-09-01T03:46:44;96936.00;;;13.32;88.48
74346;BME280;62776;50.518;6.732;2022-09-01T03:49:30;96938.72;;;13.28;88.33
74346;BME280;62776;50.518;6.732;2022-09-01T03:52:16;96943.13;;;13.21;88.39
74346;BME280;62776;50.518;6.732;2022-09-01T03:55:02;96938.88;;;13.17;88.34
74346;BME280;62776;50.518;6.732;2022-09-01T03:57:49;96938.94;;;13.13;89.51
74346;BME280;62776;50.518;6.732;2022-09-01T04:00:37;96938.97;;;13.10;89.00
74346;BME280;62776;50.518;6.732;2022-09-01T04:03:24;96942.47;;;13.06;89.10
74346;BME280;62776;50.518;6.732;2022-09-01T04:06:10;96932.97;;;13.01;89.72
74346;BME280;62776;50.518;6.732;2022-09-01T04:08:57;96936.50;;;12.99;90.10
74346;BME280;62776;50.518;6.732;2022-09-01T04:11:47;96939.97;;;12.98;90.04
74346;BME280;62776;50.518;6.732;2022-09-01T04:14:33;96943.47;;;12.97;89.99
74346;BME280;62776;50.518;6.732;2022-09-01T04:17:19;96937.44;;;12.93;90.06
74346;BME280;62776;50.518;6.732;2022-09-01T04:20:24;96941.81;;;12.88;90.38
74346;BME280;62776;50.518;6.732;2022-09-01T04:23:10;96937.50;;;12.86;90.22
74346;BME280;62776;50.518;6.732;2022-09-01T04:26:02;96941.88;;;12.87;90.00
74346;BME280;62776;50.518;6.732;2022-09-01T04:28:54;96936.69;;;12.84;90.46
74346;BME280;62776;50.518;6.732;2022-09-01T04:31:40;96944.53;;;12.81;91.37
74346;BME280;62776;50.518;6.732;2022-09-01T04:34:27;96930.63;;;12.80;91.22
74346;BME280;62776;50.518;6.732;2022-09-01T04:37:14;96942.88;;;12.77;91.01
74346;BME280;62776;50.518;6.732;2022-09-01T04:40:03;96942.03;;;12.72;91.36
74346;BME280;62776;50.518;6.732;2022-09-01T04:42:49;96931.66;;;12.70;91.04
74346;BME280;62776;50.518;6.732;2022-09-01T04:45:35;96934.28;;;12.69;90.63
74346;BME280;62776;50.518;6.732;2022-09-01T04:48:21;96936.06;;;12.64;90.69
74346;BME280;62776;50.518;6.732;2022-09-01T04:51:08;96939.56;;;12.61;91.48
74346;BME280;62776;50.518;6.732;2022-09-01T04:53:55;96938.81;;;12.55;93.32
74346;BME280;62776;50.518;6.732;2022-09-01T04:56:44;96952.75;;;12.52;92.29
74346;BME280;62776;50.518;6.732;2022-09-01T04:59:30;96951.03;;;12.50;92.06
74346;BME280;62776;50.518;6.732;2022-09-01T05:02:17;96951.94;;;12.46;91.76
74346;BME280;62776;50.518;6.732;2022-09-01T05:05:03;96951.09;;;12.43;91.74
74346;BME280;62776;50.518;6.732;2022-09-01T05:07:49;96949.34;;;12.42;92.05
74346;BME280;62776;50.518;6.732;2022-09-01T05:10:38;96948.53;;;12.40;92.64
74346;BME280;62776;50.518;6.732;2022-09-01T05:13:26;96948.53;;;12.39;92.37
74346;BME280;62776;50.518;6.732;2022-09-01T05:16:16;96951.13;;;12.40;92.47
74346;BME280;62776;50.518;6.732;2022-09-01T05:19:03;96946.69;;;12.47;93.14
74346;BME280;62776;50.518;6.732;2022-09-01T05:21:51;96945.84;;;12.47;94.40
74346;BME280;62776;50.518;6.732;2022-09-01T05:24:39;96944.06;;;12.52;94.32
74346;BME280;62776;50.518;6.732;2022-09-01T05:27:25;96943.97;;;12.56;94.41
74346;BME280;62776;50.518;6.732;2022-09-01T05:30:14;96942.13;;;12.66;93.84
74346;BME280;62776;50.518;6.732;2022-09-01T05:33:01;96940.31;;;12.72;93.41
74346;BME280;62776;50.518;6.732;2022-09-01T05:35:52;96946.31;;;12.79;93.71
74346;BME280;62776;50.518;6.732;2022-09-01T05:38:40;96946.28;;;12.80;95.43
74346;BME280;62776;50.518;6.732;2022-09-01T05:41:29;96942.72;;;12.87;94.50
74346;BME280;62776;50.518;6.732;2022-09-01T05:44:15;96946.09;;;12.95;93.76
74346;BME280;62776;50.518;6.732;2022-09-01T05:47:01;96943.38;;;13.03;94.36
74346;BME280;62776;50.518;6.732;2022-09-01T05:49:48;96941.56;;;13.11;93.98
74346;BME280;62776;50.518;6.732;2022-09-01T05:52:35;96947.53;;;13.21;93.50
74346;BME280;62776;50.518;6.732;2022-09-01T05:55:22;96949.16;;;13.29;94.52
74346;BME280;62776;50.518;6.732;2022-09-01T05:58:13;96952.38;;;13.43;93.47
74346;BME280;62776;50.518;6.732;2022-09-01T06:01:00;96960.09;;;13.52;93.57
74346;BME280;62776;50.518;6.732;2022-09-01T06:03:49;96955.66;;;13.59;93.14
74346;BME280;62776;50.518;6.732;2022-09-01T06:06:40;96968.53;;;13.70;92.55
74346;BME280;62776;50.518;6.732;2022-09-01T06:09:29;96954.41;;;13.80;92.13
74346;BME280;62776;50.518;6.732;2022-09-01T06:12:15;96956.00;;;13.90;91.82
74346;BME280;62776;50.518;6.732;2022-09-01T06:15:02;96959.28;;;14.01;91.35
74346;BME280;62776;50.518;6.732;2022-09-01T06:17:48;96960.88;;;14.11;91.34
74346;BME280;62776;50.518;6.732;2022-09-01T06:20:37;96958.00;;;14.23;91.10
74346;BME280;62776;50.518;6.732;2022-09-01T06:23:24;96955.22;;;14.35;90.70
74346;BME280;62776;50.518;6.732;2022-09-01T06:26:20;96960.22;;;14.47;90.62
74346;BME280;62776;50.518;6.732;2022-09-01T06:29:08;96956.47;;;14.60;90.32
74346;BME280;62776;50.518;6.732;2022-09-01T06:31:59;96964.00;;;14.75;89.67
74346;BME280;62776;50.518;6.732;2022-09-01T06:34:46;96952.41;;;14.89;89.24
74346;BME280;62776;50.518;6.732;2022-09-01T06:37:39;96955.56;;;15.03;88.79
74346;BME280;62776;50.518;6.732;2022-09-01T06:40:28;96955.31;;;15.15;88.28
74346;BME280;62776;50.518;6.732;2022-09-01T06:43:14;96960.31;;;15.27;87.93
74346;BME280;62776;50.518;6.732;2022-09-01T06:46:01;96956.56;;;15.37;87.41
74346;BME280;62776;50.518;6.732;2022-09-01T06:48:47;96960.72;;;15.47;87.26
74346;BME280;62776;50.518;6.732;2022-09-01T06:51:33;96958.78;;;15.57;86.33
74346;BME280;62776;50.518;6.732;2022-09-01T06:54:19;96961.09;;;15.69;86.31
74346;BME280;62776;50.518;6.732;2022-09-01T06:57:06;96960.94;;;15.76;85.44
74346;BME280;62776;50.518;6.732;2022-09-01T06:59:52;96964.22;;;15.84;85.14
74346;BME280;62776;50.518;6.732;2022-09-01T07:02:38;96962.16;;;15.97;84.65
74346;BME280;62776;50.518;6.732;2022-09-01T07:05:26;96965.41;;;16.07;84.42
74346;BME280;62776;50.518;6.732;2022-09-01T07:08:13;96961.72;;;16.14;83.84
74346;BME280;62776;50.518;6.732;2022-09-01T07:11:02;96965.00;;;16.22;83.39
74346;BME280;62776;50.518;6.732;2022-09-01T07:13:56;96968.28;;;16.30;82.88
74346;BME280;62776;50.518;6.732;2022-09-01T07:16:43;96971.50;;;16.41;82.64
74346;BME280;62776;50.518;6.732;2022-09-01T07:19:31;96974.78;;;16.49;81.21
74346;BME280;62776;50.518;6.732;2022-09-01T07:22:18;96969.25;;;16.61;80.94
74346;BME280;62776;50.518;6.732;2022-09-01T07:25:05;96961.97;;;16.71;80.72
74346;BME280;62776;50.518;6.732;2022-09-01T07:27:56;96971.31;;;16.81;80.25
74346;BME280;62776;50.518;6.732;2022-09-01T07:30:45;96970.09;;;16.92;80.28
74346;BME280;62776;50.518;6.732;2022-09-01T07:33:33;96967.19;;;17.03;79.66
74346;BME280;62776;50.518;6.732;2022-09-01T07:36:19;96964.22;;;17.14;78.91
74346;BME280;62776;50.518;6.732;2022-09-01T07:39:05;96964.88;;;17.22;77.27
74346;BME280;62776;50.518;6.732;2022-09-01T07:41:51;96961.91;;;17.32;77.96
74346;BME280;62776;50.518;6.732;2022-09-01T07:44:37;96967.72;;;17.42;77.00
74346;BME280;62776;50.518;6.732;2022-09-01T07:47:23;96970.91;;;17.54;76.39
74346;BME280;62776;50.518;6.732;2022-09-01T07:50:10;96967.84;;;17.68;76.73
74346;BME280;62776;50.518;6.732;2022-09-01T07:52:57;96971.88;;;17.78;76.53
74346;BME280;62776;50.518;6.732;2022-09-01T07:55:45;96961.88;;;17.89;75.15
74346;BME280;62776;50.518;6.732;2022-09-01T07:58:31;96966.75;;;18.01;74.67
74346;BME280;62776;50.518;6.732;2022-09-01T08:01:22;96965.44;;;18.14;74.53
74346;BME280;62776;50.518;6.732;2022-09-01T08:04:08;96968.66;;;18.22;73.44
74346;BME280;62776;50.518;6.732;2022-09-01T08:06:54;96962.16;;;18.33;73.68
74346;BME280;62776;50.518;6.732;2022-09-01T08:09:41;96964.47;;;18.42;73.12
74346;BME280;62776;50.518;6.732;2022-09-01T08:12:27;96967.72;;;18.51;73.54
74346;BME280;62776;50.518;6.732;2022-09-01T08:15:14;96962.97;;;18.61;72.41
74346;BME280;62776;50.518;6.732;2022-09-01T08:18:01;96965.09;;;18.74;72.08
74346;BME280;62776;50.518;6.732;2022-09-01T08:20:47;96967.31;;;18.87;71.97
74346;BME280;62776;50.518;6.732;2022-09-01T08:23:33;96965.94;;;19.00;70.93
74346;BME280;62776;50.518;6.732;2022-09-01T08:26:20;96961.16;;;19.09;69.82
74346;BME280;62776;50.518;6.732;2022-09-01T08:29:07;96957.28;;;19.19;69.89
74346;BME280;62776;50.518;6.732;2022-09-01T08:31:53;96962.06;;;19.31;70.26
74346;BME280;62776;50.518;6.732;2022-09-01T08:34:39;96962.53;;;19.44;69.35
74346;BME280;62776;50.518;6.732;2022-09-01T08:37:25;96964.84;;;19.52;67.93
74346;BME280;62776;50.518;6.732;2022-09-01T08:40:12;96970.63;;;19.61;68.06
74346;BME280;62776;50.518;6.732;2022-09-01T08:46:11;96973.28;;;19.83;67.45
74346;BME280;62776;50.518;6.732;2022-09-01T08:48:59;96970.22;;;19.93;66.03
74346;BME280;62776;50.518;6.732;2022-09-01T08:51:48;96972.41;;;20.04;65.37
74346;BME280;62776;50.518;6.732;2022-09-01T08:54:47;96968.47;;;20.14;62.95
74346;BME280;62776;50.518;6.732;2022-09-01T08:57:35;96966.44;;;20.21;63.01
74346;BME280;62776;50.518;6.732;2022-09-01T09:00:23;96970.50;;;20.29;62.21
74346;BME280;62776;50.518;6.732;2022-09-01T09:03:21;96967.63;;;20.35;61.76
74346;BME280;62776;50.518;6.732;2022-09-01T09:06:14;96971.03;;;20.57;60.06
74346;BME280;62776;50.518;6.732;2022-09-01T09:09:05;96956.25;;;20.74;60.58
74346;BME280;62776;50.518;6.732;2022-09-01T09:12:01;96960.72;;;20.92;60.07
74346;BME280;62776;50.518;6.732;2022-09-01T09:15:09;96957.34;;;21.08;58.11
74346;BME280;62776;50.518;6.732;2022-09-01T09:18:04;96954.22;;;21.19;57.37
74346;BME280;62776;50.518;6.732;2022-09-01T09:20:53;96949.50;;;21.26;56.38
74346;BME280;62776;50.518;6.732;2022-09-01T09:23:41;96951.50;;;21.39;57.06
74346;BME280;62776;50.518;6.732;2022-09-01T09:26:29;96948.28;;;21.51;55.62
74346;BME280;62776;50.518;6.732;2022-09-01T09:29:15;96948.19;;;21.71;55.24
74346;BME280;62776;50.518;6.732;2022-09-01T09:32:08;96943.03;;;21.87;55.26
74346;BME280;62776;50.518;6.732;2022-09-01T09:34:55;96940.53;;;22.03;54.86
74346;BME280;62776;50.518;6.732;2022-09-01T09:37:41;96938.88;;;22.17;54.70
74346;BME280;62776;50.518;6.732;2022-09-01T09:40:27;96940.22;;;22.26;52.70
74346;BME280;62776;50.518;6.732;2022-09-01T09:43:13;96928.75;;;22.25;52.34
74346;BME280;62776;50.518;6.732;2022-09-01T09:46:23;96924.78;;;22.34;52.49
74346;BME280;62776;50.518;6.732;2022-09-01T09:49:23;96930.25;;;22.31;51.76
74346;BME280;62776;50.518;6.732;2022-09-01T09:52:14;96940.06;;;22.29;51.79
74346;BME280;62776;50.518;6.732;2022-09-01T09:55:02;96924.63;;;22.20;52.10
74346;BME280;62776;50.518;6.732;2022-09-01T09:57:50;96930.47;;;22.09;51.07
74346;BME280;62776;50.518;6.732;2022-09-01T10:00:37;96925.25;;;22.08;52.46
74346;BME280;62776;50.518;6.732;2022-09-01T10:03:33;96922.31;;;22.14;51.72
74346;BME280;62776;50.518;6.732;2022-09-01T10:06:33;96923.94;;;22.16;52.07
74346;BME280;62776;50.518;6.732;2022-09-01T10:12:05;96918.50;;;22.19;51.57
74346;BME280;62776;50.518;6.732;2022-09-01T10:15:03;96929.00;;;22.21;51.28
74346;BME280;62776;50.518;6.732;2022-09-01T10:17:50;96920.22;;;22.38;52.17
74346;BME280;62776;50.518;6.732;2022-09-01T10:20:37;96916.75;;;22.53;50.70
74346;BME280;62776;50.518;6.732;2022-09-01T10:23:24;96914.50;;;22.62;50.05
74346;BME280;62776;50.518;6.732;2022-09-01T10:26:21;96920.28;;;22.70;50.53
74346;BME280;62776;50.518;6.732;2022-09-01T10:29:11;96917.53;;;22.72;49.78
74346;BME280;62776;50.518;6.732;2022-09-01T10:31:58;96919.69;;;22.65;49.46
74346;BME280;62776;50.518;6.732;2022-09-01T10:34:45;96912.66;;;22.64;49.52
74346;BME280;62776;50.518;6.732;2022-09-01T10:37:32;96917.03;;;22.65;49.84
74346;BME280;62776;50.518;6.732;2022-09-01T10:40:20;96912.44;;;22.69;49.35
74346;BME280;62776;50.518;6.732;2022-09-01T10:52:51;96906.22;;;22.85;49.60
74346;BME280;62776;50.518;6.732;2022-09-01T10:55:24;96903.25;;;22.91;47.62
74346;BME280;62776;50.518;6.732;2022-09-01T11:01:02;96893.50;;;22.92;48.53
74346;BME280;62776;50.518;6.732;2022-09-01T11:03:55;96906.84;;;22.90;48.15
74346;BME280;62776;50.518;6.732;2022-09-01T11:09:44;96903.41;;;22.88;48.36
74346;BME280;62776;50.518;6.732;2022-09-01T11:15:35;96914.53;;;22.95;48.15
74346;BME280;62776;50.518;6.732;2022-09-01T11:18:26;96907.88;;;22.88;48.53
74346;BME280;62776;50.518;6.732;2022-09-01T11:21:24;96900.69;;;22.90;48.70
74346;BME280;62776;50.518;6.732;2022-09-01T11:30:44;96906.88;;;22.73;49.10
74346;BME280;62776;50.518;6.732;2022-09-01T11:39:33;96897.94;;;22.91;49.24
74346;BME280;62776;50.518;6.732;2022-09-01T11:42:28;96900.00;;;23.02;47.12
74346;BME280;62776;50.518;6.732;2022-09-01T11:45:23;96903.28;;;23.07;47.51
74346;BME280;62776;50.518;6.732;2022-09-01T11:48:10;96900.03;;;23.18;48.02
74346;BME280;62776;50.518;6.732;2022-09-01T11:51:01;96897.66;;;23.29;48.50
74346;BME280;62776;50.518;6.732;2022-09-01T11:53:48;96894.75;;;23.33;48.24
74346;BME280;62776;50.518;6.732;2022-09-01T11:56:35;96895.78;;;23.31;47.72
74346;BME280;62776;50.518;6.732;2022-09-01T11:59:35;96889.16;;;23.39;47.52
74346;BME280;62776;50.518;6.732;2022-09-01T12:02:25;96882.88;;;23.56;47.85
74346;BME280;62776;50.518;6.732;2022-09-01T12:05:26;96891.34;;;23.78;45.43
74346;BME280;62776;50.518;6.732;2022-09-01T12:08:16;96883.25;;;23.95;45.57
74346;BME280;62776;50.518;6.732;2022-09-01T12:11:17;96875.41;;;24.24;45.46
74346;BME280;62776;50.518;6.732;2022-09-01T12:14:06;96872.47;;;24.58;45.34
74346;BME280;62776;50.518;6.732;2022-09-01T12:16:56;96870.72;;;24.57;43.25
74346;BME280;62776;50.518;6.732;2022-09-01T12:19:43;96876.59;;;24.48;43.44
74346;BME280;62776;50.518;6.732;2022-09-01T12:22:29;96873.53;;;24.40;42.93
74346;BME280;62776;50.518;6.732;2022-09-01T12:25:33;96868.81;;;24.31;43.11
74346;BME280;62776;50.518;6.732;2022-09-01T12:28:20;96870.50;;;24.32;43.61
74346;BME280;62776;50.518;6.732;2022-09-01T12:31:15;96864.81;;;24.38;43.87
74346;BME280;62776;50.518;6.732;2022-09-01T12:34:01;96852.41;;;24.52;42.11
74346;BME280;62776;50.518;6.732;2022-09-01T12:37:09;96862.84;;;24.41;43.14
74346;BME280;62776;50.518;6.732;2022-09-01T12:39:56;96856.19;;;24.48;43.01
74346;BME280;62776;50.518;6.732;2022-09-01T12:42:48;96862.19;;;24.52;42.12
74346;BME280;62776;50.518;6.732;2022-09-01T12:45:35;96856.41;;;24.74;43.16
74346;BME280;62776;50.518;6.732;2022-09-01T12:48:25;96865.00;;;25.07;42.67
74346;BME280;62776;50.518;6.732;2022-09-01T12:51:21;96860.72;;;25.04;41.99
74346;BME280;62776;50.518;6.732;2022-09-01T12:54:08;96849.59;;;24.98;41.05
74346;BME280;62776;50.518;6.732;2022-09-01T12:56:54;96853.78;;;24.88;41.22
74346;BME280;62776;50.518;6.732;2022-09-01T12:59:41;96848.72;;;24.83;42.32
74346;BME280;62776;50.518;6.732;2022-09-01T13:02:34;96850.91;;;24.77;42.33
74346;BME280;62776;50.518;6.732;2022-09-01T13:08:17;96842.25;;;24.59;41.96
74346;BME280;62776;50.518;6.732;2022-09-01T13:11:05;96841.00;;;24.50;41.21
74346;BME280;62776;50.518;6.732;2022-09-01T13:13:52;96831.72;;;24.57;42.36
74346;BME280;62776;50.518;6.732;2022-09-01T13:16:37;96833.91;;;24.65;41.13
74346;BME280;62776;50.518;6.732;2022-09-01T13:19:23;96829.16;;;24.70;42.07
74346;BME280;62776;50.518;6.732;2022-09-01T13:22:09;96832.03;;;24.81;42.07
74346;BME280;62776;50.518;6.732;2022-09-01T13:24:55;96826.22;;;24.89;42.19
74346;BME280;62776;50.518;6.732;2022-09-01T13:27:42;96826.22;;;24.89;41.24
74346;BME280;62776;50.518;6.732;2022-09-01T13:30:29;96828.88;;;24.89;41.93
74346;BME280;62776;50.518;6.732;2022-09-01T13:33:15;96829.09;;;24.86;42.04
74346;BME280;62776;50.518;6.732;2022-09-01T13:36:02;96824.16;;;24.80;41.00
74346;BME280;62776;50.518;6.732;2022-09-01T13:38:48;96827.84;;;24.77;40.97
74346;BME280;62776;50.518;6.732;2022-09-01T13:41:34;96810.38;;;24.87;40.47
74346;BME280;62776;50.518;6.732;2022-09-01T13:44:20;96813.31;;;24.97;41.89
74346;BME280;62776;50.518;6.732;2022-09-01T13:47:06;96807.41;;;24.92;41.20
74346;BME280;62776;50.518;6.732;2022-09-01T13:49:52;96816.56;;;24.88;40.61
74346;BME280;62776;50.518;6.732;2022-09-01T13:52:40;96809.63;;;24.85;41.49
74346;BME280;62776;50.518;6.732;2022-09-01T13:55:28;96807.50;;;24.76;41.07
74346;BME280;62776;50.518;6.732;2022-09-01T13:58:14;96808.53;;;24.59;41.14
74346;BME280;62776;50.518;6.732;2022-09-01T14:01:00;96802.16;;;24.34;40.64
74346;BME280;62776;50.518;6.732;2022-09-01T14:03:46;96808.22;;;24.22;42.09
74346;BME280;62776;50.518;6.732;2022-09-01T14:06:38;96806.63;;;24.03;42.24
74346;BME280;62776;50.518;6.732;2022-09-01T14:09:24;96803.41;;;23.98;42.46
74346;BME280;62776;50.518;6.732;2022-09-01T14:12:10;96805.47;;;23.93;42.57
74346;BME280;62776;50.518;6.732;2022-09-01T14:14:56;96804.03;;;23.88;42.11
74346;BME280;62776;50.518;6.732;2022-09-01T14:17:43;96806.22;;;23.81;41.70
74346;BME280;62776;50.518;6.732;2022-09-01T14:20:31;96805.25;;;23.82;42.29
74346;BME280;62776;50.518;6.732;2022-09-01T14:23:20;96802.69;;;23.81;42.25
74346;BME280;62776;50.518;6.732;2022-09-01T14:26:07;96805.88;;;23.72;41.48
74346;BME280;62776;50.518;6.732;2022-09-01T14:28:54;96805.81;;;23.73;42.08
74346;BME280;62776;50.518;6.732;2022-09-01T14:31:40;96800.69;;;23.70;41.91
74346;BME280;62776;50.518;6.732;2022-09-01T14:34:29;96799.53;;;23.74;42.69
74346;BME280;62776;50.518;6.732;2022-09-01T14:37:15;96796.81;;;23.76;42.38
74346;BME280;62776;50.518;6.732;2022-09-01T14:40:02;96798.50;;;23.77;41.41
74346;BME280;62776;50.518;6.732;2022-09-01T14:42:49;96795.84;;;23.77;41.95
74346;BME280;62776;50.518;6.732;2022-09-01T14:45:37;96798.16;;;23.83;42.42
74346;BME280;62776;50.518;6.732;2022-09-01T14:48:23;96787.72;;;24.10;41.70
74346;BME280;62776;50.518;6.732;2022-09-01T14:51:16;96789.84;;;24.33;41.16
74346;BME280;62776;50.518;6.732;2022-09-01T14:54:03;96780.38;;;26.57;38.13
74346;BME280;62776;50.518;6.732;2022-09-01T14:56:49;96755.50;;;28.81;32.54
74346;BME280;62776;50.518;6.732;2022-09-01T14:59:36;96765.16;;;29.91;30.98
74346;BME280;62776;50.518;6.732;2022-09-01T15:02:22;96759.19;;;30.70;29.73
74346;BME280;62776;50.518;6.732;2022-09-01T15:05:10;96760.16;;;31.39;29.19
74346;BME280;62776;50.518;6.732;2022-09-01T15:07:56;96748.19;;;32.30;28.23
74346;BME280;62776;50.518;6.732;2022-09-01T15:10:43;96760.31;;;32.53;27.56
74346;BME280;62776;50.518;6.732;2022-09-01T15:13:29;96765.16;;;30.53;29.03
74346;BME280;62776;50.518;6.732;2022-09-01T15:16:16;96765.94;;;29.17;30.77
74346;BME280;62776;50.518;6.732;2022-09-01T15:19:03;96765.63;;;28.20;32.48
74346;BME280;62776;50.518;6.732;2022-09-01T15:21:49;96765.84;;;27.22;34.20
74346;BME280;62776;50.518;6.732;2022-09-01T15:24:35;96768.88;;;26.44;35.37
74346;BME280;62776;50.518;6.732;2022-09-01T15:27:21;96761.22;;;25.87;36.70
74346;BME280;62776;50.518;6.732;2022-09-01T15:30:07;96761.44;;;25.57;37.38